createdAt,value
2022-12-11T00:00:26.441Z,5.23
2022-12-11T00:02:53.192Z,5.20
2022-12-11T00:05:19.769Z,5.77
2022-12-11T00:07:46.425Z,4.80
2022-12-11T00:10:13.064Z,5.03
2022-12-11T00:12:39.629Z,5.17
2022-12-11T00:15:06.733Z,5.23
2022-12-11T00:17:33.296Z,4.67
2022-12-11T00:20:00.076Z,5.37
2022-12-11T00:22:26.582Z,4.80
2022-12-11T00:24:53.148Z,5.03
2022-12-11T00:27:19.636Z,4.77
2022-12-11T00:29:46.299Z,5.17
2022-12-11T00:32:13.044Z,5.00
2022-12-11T00:34:39.720Z,5.03
2022-12-11T00:37:06.374Z,5.10
2022-12-11T00:39:33.016Z,4.97
2022-12-11T00:41:59.729Z,4.80
2022-12-11T00:44:26.336Z,4.77
2022-12-11T00:46:52.928Z,4.50
2022-12-11T00:49:19.538Z,5.27
2022-12-11T00:51:46.136Z,4.90
2022-12-11T00:54:12.676Z,4.37
2022-12-11T00:56:39.458Z,5.20
2022-12-11T00:59:06.065Z,4.53
2022-12-11T01:01:32.749Z,4.60
2022-12-11T01:03:59.532Z,4.70
2022-12-11T01:06:26.770Z,4.50
2022-12-11T01:09:13.457Z,4.37
2022-12-11T01:11:40.317Z,4.93
2022-12-11T01:14:06.875Z,4.90
2022-12-11T01:16:33.554Z,4.87
2022-12-11T01:19:00.360Z,4.47
2022-12-11T01:21:26.952Z,4.67
2022-12-11T01:23:53.598Z,4.07
2022-12-11T01:26:20.221Z,4.40
2022-12-11T01:28:49.441Z,4.50
2022-12-11T01:31:17.054Z,4.60
2022-12-11T01:33:43.703Z,5.03
2022-12-11T01:36:14.153Z,4.57
2022-12-11T01:38:40.809Z,4.60
2022-12-11T01:41:07.882Z,4.20
2022-12-11T01:43:34.572Z,4.60
2022-12-11T01:46:01.207Z,4.37
2022-12-11T01:48:29.179Z,4.40
2022-12-11T01:51:00.416Z,4.17
2022-12-11T01:53:29.367Z,4.40
2022-12-11T01:55:56.272Z,4.40
2022-12-11T01:58:23.823Z,4.47
2022-12-11T02:00:51.371Z,4.03
2022-12-11T02:03:18.065Z,4.30
2022-12-11T02:05:44.590Z,4.60
2022-12-11T02:08:11.267Z,4.20
2022-12-11T02:10:47.976Z,4.33
2022-12-11T02:13:44.760Z,4.37
2022-12-11T02:16:40.530Z,4.53
2022-12-11T02:19:15.326Z,4.57
2022-12-11T02:21:43.893Z,4.23
2022-12-11T02:24:32.128Z,4.40
2022-12-11T02:27:05.071Z,4.37
2022-12-11T02:29:34.564Z,4.70
2022-12-11T02:32:22.981Z,4.30
2022-12-11T02:34:56.271Z,4.03
2022-12-11T02:37:23.725Z,4.27
2022-12-11T02:39:51.981Z,4.40
2022-12-11T02:42:18.583Z,4.57
2022-12-11T02:44:45.270Z,4.10
2022-12-11T02:47:13.121Z,3.67
2022-12-11T02:49:40.648Z,4.40
2022-12-11T02:52:07.316Z,4.40
2022-12-11T02:54:35.856Z,4.50
2022-12-11T02:57:05.968Z,4.13
2022-12-11T02:59:40.836Z,4.17
2022-12-11T03:02:07.429Z,4.40
2022-12-11T03:04:34.843Z,4.10
2022-12-11T03:07:12.163Z,4.13
2022-12-11T03:09:40.040Z,4.30
2022-12-11T03:12:10.129Z,3.73
2022-12-11T03:14:37.200Z,4.60
2022-12-11T03:17:11.211Z,4.03
2022-12-11T03:19:40.573Z,4.00
2022-12-11T03:22:41.527Z,3.83
2022-12-11T03:25:11.830Z,3.70
2022-12-11T03:27:45.207Z,3.70
2022-12-11T03:30:14.377Z,4.07
2022-12-11T03:32:51.347Z,4.07
2022-12-11T03:35:21.686Z,3.83
2022-12-11T03:37:48.381Z,4.10
2022-12-11T03:40:16.288Z,4.07
2022-12-11T03:42:44.394Z,3.83
2022-12-11T03:45:11.347Z,4.27
2022-12-11T03:47:38.223Z,3.80
2022-12-11T03:50:05.545Z,4.03
2022-12-11T03:52:32.486Z,4.20
2022-12-11T03:55:01.286Z,3.90
2022-12-11T03:57:30.516Z,4.57
2022-12-11T03:59:57.312Z,3.77
2022-12-11T04:02:23.880Z,3.83
2022-12-11T04:04:50.390Z,4.20
2022-12-11T04:07:17.043Z,3.80
2022-12-11T04:09:43.581Z,4.07
2022-12-11T04:12:10.207Z,3.87
2022-12-11T04:14:55.547Z,3.80
2022-12-11T04:17:40.648Z,4.00
2022-12-11T04:20:26.268Z,3.57
2022-12-11T04:23:11.441Z,3.97
2022-12-11T04:25:38.094Z,4.20
2022-12-11T04:28:06.796Z,4.23
2022-12-11T04:30:34.459Z,3.50
2022-12-11T04:33:07.457Z,3.63
2022-12-11T04:35:35.116Z,4.00
2022-12-11T04:38:01.768Z,3.90
2022-12-11T04:40:28.422Z,3.60
2022-12-11T04:42:55.166Z,3.70
2022-12-11T04:45:21.725Z,3.83
2022-12-11T04:47:48.355Z,3.70
2022-12-11T04:50:15.267Z,3.47
2022-12-11T04:52:42.332Z,3.83
2022-12-11T04:55:09.717Z,3.43
2022-12-11T04:57:36.638Z,3.60
2022-12-11T05:00:06.364Z,3.70
2022-12-11T05:02:36.061Z,3.90
2022-12-11T05:05:06.894Z,3.63
2022-12-11T05:07:33.593Z,3.70
2022-12-11T05:10:00.177Z,3.60
2022-12-11T05:12:26.804Z,3.83
2022-12-11T05:14:54.053Z,3.80
2022-12-11T05:17:21.564Z,3.87
2022-12-11T05:19:51.465Z,3.53
2022-12-11T05:22:18.417Z,3.40
2022-12-11T05:24:45.585Z,3.57
2022-12-11T05:27:14.146Z,3.43
2022-12-11T05:29:40.834Z,3.40
2022-12-11T05:32:07.538Z,3.47
2022-12-11T05:34:34.256Z,3.23
2022-12-11T05:37:01.543Z,3.27
2022-12-11T05:39:33.868Z,3.20
2022-12-11T05:42:03.016Z,3.50
2022-12-11T05:44:29.789Z,3.70
2022-12-11T05:46:59.983Z,3.60
2022-12-11T05:49:30.809Z,3.70
2022-12-11T05:51:57.886Z,3.60
2022-12-11T05:54:24.679Z,3.83
2022-12-11T05:56:51.559Z,3.53
2022-12-11T05:59:19.772Z,3.70
2022-12-11T06:01:52.891Z,3.50
2022-12-11T06:04:19.688Z,3.60
2022-12-11T06:06:46.420Z,3.70
2022-12-11T06:09:16.498Z,3.47
2022-12-11T06:11:43.073Z,3.47
2022-12-11T06:14:15.753Z,3.60
2022-12-11T06:16:42.513Z,3.83
2022-12-11T06:19:14.264Z,3.67
2022-12-11T06:21:40.975Z,3.87
2022-12-11T06:24:07.901Z,3.40
2022-12-11T06:26:36.791Z,3.80
2022-12-11T06:29:06.327Z,3.30
2022-12-11T06:31:35.725Z,3.53
2022-12-11T06:34:04.651Z,3.67
2022-12-11T06:36:33.874Z,4.03
2022-12-11T06:39:00.512Z,4.00
2022-12-11T06:41:27.169Z,3.33
2022-12-11T06:44:02.675Z,3.30
2022-12-11T06:46:36.574Z,3.70
2022-12-11T06:49:03.278Z,3.43
2022-12-11T06:51:29.853Z,3.60
2022-12-11T06:53:56.702Z,3.43
2022-12-11T06:56:26.561Z,3.70
2022-12-11T06:59:07.264Z,3.70
2022-12-11T07:01:34.289Z,3.70
2022-12-11T07:04:00.825Z,3.70
2022-12-11T07:06:28.489Z,3.57
2022-12-11T07:08:55.242Z,3.77
2022-12-11T07:11:21.949Z,3.67
2022-12-11T07:13:48.706Z,3.93
2022-12-11T07:16:16.025Z,4.13
2022-12-11T07:18:44.315Z,3.60
2022-12-11T07:21:12.806Z,3.67
2022-12-11T07:23:39.398Z,3.70
2022-12-11T07:26:07.069Z,4.00
2022-12-11T07:28:34.463Z,3.73
2022-12-11T07:31:07.810Z,3.77
2022-12-11T07:33:34.547Z,3.90
2022-12-11T07:36:04.958Z,3.77
2022-12-11T07:38:31.591Z,3.57
2022-12-11T07:41:05.458Z,3.93
2022-12-11T07:43:32.938Z,3.33
2022-12-11T07:46:13.703Z,3.93
2022-12-11T07:48:40.961Z,3.77
2022-12-11T07:51:18.147Z,4.47
2022-12-11T07:53:45.531Z,3.90
2022-12-11T07:56:12.270Z,3.63
2022-12-11T07:58:39.093Z,4.30
2022-12-11T08:01:06.674Z,3.97
2022-12-11T08:03:33.586Z,4.10
2022-12-11T08:06:00.175Z,3.77
2022-12-11T08:08:26.696Z,4.10
2022-12-11T08:10:53.580Z,4.13
2022-12-11T08:13:20.151Z,3.70
2022-12-11T08:15:46.696Z,3.80
2022-12-11T08:18:13.187Z,3.80
2022-12-11T08:20:39.696Z,3.97
2022-12-11T08:23:06.215Z,3.70
2022-12-11T08:25:32.977Z,3.93
2022-12-11T08:27:59.514Z,4.33
2022-12-11T08:30:26.002Z,4.30
2022-12-11T08:32:52.618Z,4.27
2022-12-11T08:35:19.206Z,4.37
2022-12-11T08:37:45.810Z,4.53
2022-12-11T08:40:12.606Z,4.00
2022-12-11T08:42:39.159Z,3.80
2022-12-11T08:45:06.323Z,4.37
2022-12-11T08:47:32.851Z,4.13
2022-12-11T08:49:59.340Z,5.30
2022-12-11T08:52:25.851Z,4.80
2022-12-11T08:54:52.580Z,4.63
2022-12-11T08:57:19.107Z,5.23
2022-12-11T08:59:45.599Z,5.20
2022-12-11T09:02:13.002Z,5.50
2022-12-11T09:04:39.656Z,5.40
2022-12-11T09:07:06.260Z,5.47
2022-12-11T09:09:32.761Z,4.80
2022-12-11T09:12:01.434Z,5.00
2022-12-11T09:14:27.994Z,5.10
2022-12-11T09:16:54.502Z,5.03
2022-12-11T09:19:21.066Z,5.27
2022-12-11T09:21:47.617Z,4.73
2022-12-11T09:24:15.023Z,5.40
2022-12-11T09:26:41.733Z,5.00
2022-12-11T09:29:08.471Z,6.20
2022-12-11T09:31:36.060Z,8.27
2022-12-11T09:34:04.611Z,9.50
2022-12-11T09:36:31.173Z,8.53
2022-12-11T09:39:04.577Z,7.90
2022-12-11T09:41:40.630Z,7.30
2022-12-11T09:44:16.588Z,7.47
2022-12-11T09:46:43.354Z,7.40
2022-12-11T09:49:41.406Z,6.80
2022-12-11T09:52:14.449Z,7.07
2022-12-11T09:54:53.177Z,6.67
2022-12-11T09:57:31.677Z,6.57
2022-12-11T10:00:25.028Z,6.30
2022-12-11T10:03:00.963Z,6.47
2022-12-11T10:05:33.414Z,5.93
2022-12-11T10:08:10.453Z,6.30
2022-12-11T10:10:48.999Z,6.50
2022-12-11T10:13:37.279Z,5.87
2022-12-11T10:16:43.112Z,6.23
2022-12-11T10:19:22.047Z,5.63
2022-12-11T10:21:49.571Z,4.93
2022-12-11T10:25:09.492Z,5.67
2022-12-11T10:27:26.663Z,5.60
2022-12-11T10:30:00.141Z,5.03
2022-12-11T10:32:33.429Z,5.17
2022-12-11T10:35:02.788Z,5.20
2022-12-11T10:37:29.424Z,5.00
2022-12-11T10:39:55.944Z,4.77
2022-12-11T10:42:22.916Z,4.93
2022-12-11T10:45:00.599Z,4.70
2022-12-11T10:47:27.245Z,4.87
2022-12-11T10:49:53.653Z,4.30
2022-12-11T10:52:24.741Z,4.70
2022-12-11T10:55:02.704Z,4.33
2022-12-11T10:57:34.589Z,4.17
2022-12-11T11:00:01.106Z,4.30
2022-12-11T11:02:42.692Z,4.20
2022-12-11T11:05:17.446Z,4.17
2022-12-11T11:07:44.057Z,4.17
2022-12-11T11:10:10.620Z,4.20
2022-12-11T11:12:39.330Z,4.43
2022-12-11T11:15:10.528Z,4.37
2022-12-11T11:17:54.963Z,4.30
2022-12-11T11:20:23.767Z,3.93
2022-12-11T11:22:53.416Z,3.50
2022-12-11T11:25:21.896Z,3.60
2022-12-11T11:27:54.030Z,3.43
2022-12-11T11:30:24.582Z,3.97
2022-12-11T11:33:04.596Z,4.07
2022-12-11T11:35:31.511Z,3.80
2022-12-11T11:38:05.879Z,3.40
2022-12-11T11:40:53.573Z,3.77
2022-12-11T11:43:34.475Z,3.60
2022-12-11T11:46:02.935Z,3.60
2022-12-11T11:49:12.411Z,3.60
2022-12-11T11:51:44.603Z,3.93
2022-12-11T11:54:25.670Z,4.00
2022-12-11T11:56:52.770Z,3.87
2022-12-11T11:59:26.933Z,3.90
2022-12-11T12:01:55.543Z,3.50
2022-12-11T12:04:22.120Z,3.60
2022-12-11T12:07:14.151Z,3.90
2022-12-11T12:10:05.135Z,3.27
2022-12-11T12:12:43.794Z,3.60
2022-12-11T12:15:28.914Z,3.13
2022-12-11T12:18:02.821Z,3.60
2022-12-11T12:20:55.436Z,3.60
2022-12-11T12:23:37.030Z,3.37
2022-12-11T12:26:22.891Z,3.63
2022-12-11T12:29:01.480Z,4.93
2022-12-11T12:31:42.230Z,6.10
2022-12-11T12:34:14.146Z,5.13
2022-12-11T12:37:06.802Z,5.23
2022-12-11T12:40:10.453Z,4.97
2022-12-11T12:42:52.204Z,4.90
2022-12-11T12:45:30.325Z,5.47
2022-12-11T12:47:56.891Z,4.87
2022-12-11T12:50:25.136Z,5.50
2022-12-11T12:52:52.304Z,4.90
2022-12-11T12:55:29.105Z,5.50
2022-12-11T12:58:04.278Z,4.50
2022-12-11T13:00:39.041Z,4.90
2022-12-11T13:03:22.534Z,4.67
2022-12-11T13:06:04.714Z,5.23
2022-12-11T13:08:49.876Z,8.60
2022-12-11T13:11:18.760Z,8.37
2022-12-11T13:13:55.190Z,7.80
2022-12-11T13:16:26.360Z,7.33
2022-12-11T13:18:52.964Z,7.13
2022-12-11T13:21:33.752Z,6.70
2022-12-11T13:24:23.493Z,6.67
2022-12-11T13:26:50.242Z,6.30
2022-12-11T13:29:38.640Z,6.30
2022-12-11T13:32:07.844Z,5.77
2022-12-11T13:34:39.507Z,5.70
2022-12-11T13:37:06.295Z,5.30
2022-12-11T13:39:35.039Z,6.13
2022-12-11T13:42:04.630Z,5.87
2022-12-11T13:44:39.622Z,5.27
2022-12-11T13:47:07.308Z,5.13
2022-12-11T13:49:38.209Z,5.57
2022-12-11T13:52:05.164Z,5.10
2022-12-11T13:54:32.640Z,5.13
2022-12-11T13:57:06.705Z,5.27
2022-12-11T13:59:36.759Z,4.97
2022-12-11T14:02:13.661Z,5.37
2022-12-11T14:04:40.363Z,4.77
2022-12-11T14:07:08.106Z,5.00
2022-12-11T14:09:34.669Z,4.67
2022-12-11T14:12:01.402Z,4.50
2022-12-11T14:14:43.778Z,4.73
2022-12-11T14:17:14.152Z,4.97
2022-12-11T14:19:41.782Z,4.70
2022-12-11T14:22:20.399Z,4.90
2022-12-11T14:24:52.056Z,4.07
2022-12-11T14:27:19.057Z,4.23
2022-12-11T14:29:45.631Z,4.33
2022-12-11T14:32:19.799Z,4.40
2022-12-11T14:34:46.395Z,4.07
2022-12-11T14:37:14.391Z,4.33
2022-12-11T14:39:43.826Z,4.20
2022-12-11T14:42:31.334Z,4.67
2022-12-11T14:45:24.078Z,3.73
2022-12-11T14:47:50.641Z,4.00
2022-12-11T14:50:18.514Z,4.40
2022-12-11T14:52:48.100Z,4.20
2022-12-11T14:55:31.627Z,4.30
2022-12-11T14:58:00.260Z,4.13
2022-12-11T15:00:36.731Z,4.00
2022-12-11T15:03:10.122Z,4.23
2022-12-11T15:05:40.978Z,3.80
2022-12-11T15:08:10.921Z,4.13
2022-12-11T15:10:42.198Z,3.60
2022-12-11T15:13:09.350Z,4.00
2022-12-11T15:15:46.647Z,3.73
2022-12-11T15:18:22.120Z,3.83
2022-12-11T15:21:09.540Z,4.20
2022-12-11T15:23:48.276Z,3.77
2022-12-11T15:26:14.774Z,3.40
2022-12-11T15:28:41.356Z,4.00
2022-12-11T15:31:24.071Z,3.87
2022-12-11T15:33:50.746Z,4.37
2022-12-11T15:36:26.652Z,3.67
2022-12-11T15:38:53.205Z,3.83
2022-12-11T15:41:24.678Z,3.70
2022-12-11T15:43:59.107Z,3.97
2022-12-11T15:46:26.103Z,3.90
2022-12-11T15:48:52.788Z,3.87
2022-12-11T15:51:19.313Z,3.83
2022-12-11T15:53:45.789Z,3.90
2022-12-11T15:56:13.899Z,3.67
2022-12-11T15:58:40.442Z,3.87
2022-12-11T16:01:07.014Z,3.90
2022-12-11T16:03:33.622Z,4.53
2022-12-11T16:06:00.105Z,8.40
2022-12-11T16:08:26.776Z,8.17
2022-12-11T16:10:54.570Z,6.90
2022-12-11T16:13:21.319Z,7.37
2022-12-11T16:15:48.498Z,7.23
2022-12-11T16:18:20.290Z,6.87
2022-12-11T16:20:46.900Z,8.13
2022-12-11T16:23:14.349Z,9.20
2022-12-11T16:25:41.294Z,8.80
2022-12-11T16:28:08.036Z,8.57
2022-12-11T16:30:35.784Z,8.37
2022-12-11T16:33:08.551Z,8.50
2022-12-11T16:35:38.554Z,7.73
2022-12-11T16:38:05.155Z,9.10
2022-12-11T16:40:31.931Z,9.80
2022-12-11T16:42:58.452Z,9.27
2022-12-11T16:45:26.232Z,8.30
2022-12-11T16:47:52.775Z,8.63
2022-12-11T16:50:19.329Z,8.03
2022-12-11T16:52:45.970Z,9.40
2022-12-11T16:55:13.295Z,8.30
2022-12-11T16:57:40.512Z,7.90
2022-12-11T17:00:08.823Z,8.13
2022-12-11T17:02:35.983Z,7.83
2022-12-11T17:05:02.499Z,6.90
2022-12-11T17:07:29.073Z,6.63
2022-12-11T17:09:55.603Z,7.37
2022-12-11T17:12:27.562Z,7.30
2022-12-11T17:14:54.882Z,7.37
2022-12-11T17:17:21.493Z,7.10
2022-12-11T17:19:47.989Z,6.17
2022-12-11T17:22:14.846Z,6.47
2022-12-11T17:24:41.392Z,6.13
2022-12-11T17:27:07.958Z,6.53
2022-12-11T17:29:34.581Z,6.93
2022-12-11T17:32:03.073Z,6.17
2022-12-11T17:34:34.585Z,6.07
2022-12-11T17:37:04.229Z,6.70
2022-12-11T17:39:31.783Z,5.97
2022-12-11T17:41:58.371Z,6.07
2022-12-11T17:44:26.572Z,5.77
2022-12-11T17:46:53.352Z,6.37
2022-12-11T17:49:23.020Z,6.20
2022-12-11T17:51:49.739Z,5.80
2022-12-11T17:54:16.273Z,6.10
2022-12-11T17:56:42.863Z,7.50
2022-12-11T17:59:09.425Z,7.47
2022-12-11T18:01:36.190Z,6.50
2022-12-11T18:04:02.957Z,6.73
2022-12-11T18:06:29.887Z,6.40
2022-12-11T18:08:56.784Z,6.23
2022-12-11T18:11:23.494Z,6.43
2022-12-11T18:13:50.533Z,6.10
2022-12-11T18:16:19.666Z,6.23
2022-12-11T18:18:47.281Z,6.17
2022-12-11T18:21:14.910Z,6.53
2022-12-11T18:23:45.930Z,6.27
2022-12-11T18:26:14.597Z,5.87
2022-12-11T18:28:43.327Z,6.50
2022-12-11T18:31:15.759Z,5.73
2022-12-11T18:33:43.339Z,5.63
2022-12-11T18:36:10.580Z,6.20
2022-12-11T18:38:37.272Z,5.53
2022-12-11T18:41:14.869Z,5.67
2022-12-11T18:43:41.634Z,5.70
2022-12-11T18:46:09.882Z,5.60
2022-12-11T18:48:36.683Z,5.60
2022-12-11T18:51:09.344Z,5.87
2022-12-11T18:53:36.035Z,5.37
2022-12-11T18:56:06.099Z,5.20
2022-12-11T18:58:32.647Z,4.77
2022-12-11T19:00:59.254Z,5.43
2022-12-11T19:03:25.755Z,4.83
2022-12-11T19:05:52.235Z,4.80
2022-12-11T19:08:18.745Z,5.33
2022-12-11T19:10:46.096Z,5.17
2022-12-11T19:13:13.143Z,5.73
2022-12-11T19:15:43.036Z,5.23
2022-12-11T19:18:09.936Z,5.00
2022-12-11T19:20:49.242Z,5.07
2022-12-11T19:23:17.559Z,4.80
2022-12-11T19:25:44.899Z,5.30
2022-12-11T19:28:11.403Z,5.40
2022-12-11T19:30:45.343Z,5.00
2022-12-11T19:33:12.061Z,5.57
2022-12-11T19:35:38.840Z,5.07
2022-12-11T19:38:05.365Z,5.23
2022-12-11T19:40:31.899Z,5.03
2022-12-11T19:42:58.412Z,5.00
2022-12-11T19:45:24.941Z,4.80
2022-12-11T19:47:51.474Z,5.13
2022-12-11T19:50:17.966Z,5.30
2022-12-11T19:52:46.360Z,5.10
2022-12-11T19:55:14.993Z,5.20
2022-12-11T19:57:41.679Z,4.87
2022-12-11T20:00:08.594Z,5.37
2022-12-11T20:02:35.430Z,5.10
2022-12-11T20:05:01.929Z,5.20
2022-12-11T20:07:30.745Z,5.33
2022-12-11T20:09:57.473Z,5.20
2022-12-11T20:12:24.578Z,5.47
2022-12-11T20:14:51.166Z,5.33
2022-12-11T20:17:17.819Z,5.60
2022-12-11T20:19:44.409Z,5.20
2022-12-11T20:22:11.253Z,4.90
2022-12-11T20:24:37.846Z,5.07
2022-12-11T20:27:04.472Z,5.07
2022-12-11T20:29:31.006Z,4.83
2022-12-11T20:31:59.766Z,5.33
2022-12-11T20:34:27.055Z,5.30
2022-12-11T20:36:54.192Z,5.20
2022-12-11T20:39:20.938Z,4.77
2022-12-11T20:41:50.184Z,5.03
2022-12-11T20:44:16.813Z,5.00
2022-12-11T20:46:45.035Z,4.80
2022-12-11T20:49:16.881Z,4.70
2022-12-11T20:51:45.914Z,4.83
2022-12-11T20:54:12.718Z,5.60
2022-12-11T20:56:40.759Z,5.00
2022-12-11T20:59:10.621Z,4.67
2022-12-11T21:01:43.434Z,5.20
2022-12-11T21:04:10.284Z,5.03
2022-12-11T21:06:37.609Z,5.23
2022-12-11T21:09:14.890Z,4.80
2022-12-11T21:11:41.686Z,5.07
2022-12-11T21:14:08.335Z,4.87
2022-12-11T21:16:36.509Z,4.77
2022-12-11T21:19:03.712Z,5.20
2022-12-11T21:21:34.536Z,5.37
2022-12-11T21:24:01.279Z,5.23
2022-12-11T21:26:27.897Z,5.13
2022-12-11T21:28:55.870Z,4.60
2022-12-11T21:31:22.572Z,4.93
2022-12-11T21:33:49.441Z,5.00
2022-12-11T21:36:16.295Z,5.17
2022-12-11T21:38:48.100Z,5.20
2022-12-11T21:41:22.238Z,4.63
2022-12-11T21:46:36.338Z,5.13
2022-12-11T21:49:05.013Z,4.97
2022-12-11T21:51:37.927Z,5.70
2022-12-11T21:54:07.564Z,5.43
2022-12-11T21:56:37.235Z,5.20
2022-12-11T21:59:03.880Z,5.07
2022-12-11T22:01:33.635Z,4.73
2022-12-11T22:04:00.675Z,4.97
2022-12-11T22:06:34.469Z,5.23
2022-12-11T22:09:14.295Z,5.53
2022-12-11T22:14:30.830Z,5.03
2022-12-11T22:16:58.529Z,5.23
2022-12-11T22:19:32.521Z,4.90
2022-12-11T22:21:59.768Z,5.00
2022-12-11T22:24:26.402Z,5.50
2022-12-11T22:26:53.948Z,6.07
2022-12-11T22:29:20.648Z,5.93
2022-12-11T22:31:47.558Z,5.87
2022-12-11T22:34:14.110Z,5.37
2022-12-11T22:36:40.781Z,4.67
2022-12-11T22:39:09.333Z,4.97
2022-12-11T22:41:41.886Z,5.60
2022-12-11T22:44:19.330Z,5.77
2022-12-11T22:46:49.877Z,5.90
2022-12-11T22:49:16.906Z,5.33
2022-12-11T22:51:43.584Z,5.37
2022-12-11T22:54:15.474Z,5.70
2022-12-11T22:56:50.916Z,5.00
2022-12-11T22:59:20.239Z,5.70
2022-12-11T23:01:46.819Z,4.93
2022-12-11T23:04:15.920Z,5.50
2022-12-11T23:06:42.602Z,5.27
2022-12-11T23:09:09.293Z,5.47
2022-12-11T23:11:36.992Z,5.60
2022-12-11T23:14:04.623Z,5.40
2022-12-11T23:16:31.311Z,5.37
2022-12-11T23:18:58.143Z,5.07
2022-12-11T23:21:25.231Z,5.47
2022-12-11T23:23:51.858Z,5.90
2022-12-11T23:26:18.804Z,5.40
2022-12-11T23:28:45.412Z,5.63
2022-12-11T23:31:12.168Z,5.57
2022-12-11T23:33:38.742Z,5.50
2022-12-11T23:36:05.559Z,6.07
2022-12-11T23:38:32.268Z,5.47
2022-12-11T23:41:00.524Z,6.33
2022-12-11T23:43:33.093Z,5.63
2022-12-11T23:45:59.737Z,6.20
2022-12-11T23:48:26.342Z,6.13
2022-12-11T23:50:52.953Z,5.67
2022-12-11T23:53:19.543Z,5.50
2022-12-11T23:55:46.112Z,6.00
2022-12-11T23:58:12.717Z,5.70
